sensor_id;sensor_type;location;lat;lon;timestamp;pressure;altitude;pressure_sealevel;temperature;humidity
42633;BME280;28261;53.304;-6.284;2023-04-01T00:00:14;99739.81;;;8.73;100.00
42633;BME280;28261;53.304;-6.284;2023-04-01T00:02:18;99739.81;;;8.73;100.00
42633;BME280;28261;53.304;-6.284;2023-04-01T00:04:23;99744.13;;;8.74;100.00
42633;BME280;28261;53.304;-6.284;2023-04-01T00:06:28;99742.34;;;8.75;100.00
42633;BME280;28261;53.304;-6.284;2023-04-01T00:08:31;99748.59;;;8.74;100.00
42633;BME280;28261;53.304;-6.284;2023-04-01T00:10:35;99751.13;;;8.75;100.00
42633;BME280;28261;53.304;-6.284;2023-04-01T00:12:41;99754.72;;;8.74;100.00
42633;BME280;28261;53.304;-6.284;2023-04-01T00:14:45;99752.06;;;8.74;100.00
42633;BME280;28261;53.304;-6.284;2023-04-01T00:16:50;99757.34;;;8.74;100.00
42633;BME280;28261;53.304;-6.284;2023-04-01T00:18:54;99752.06;;;8.74;100.00
42633;BME280;28261;53.304;-6.284;2023-04-01T00:20:59;99754.72;;;8.74;100.00
42633;BME280;28261;53.304;-6.284;2023-04-01T00:23:03;99752.06;;;8.74;100.00
42633;BME280;28261;53.304;-6.284;2023-04-01T00:25:09;99744.25;;;8.73;100.00
42633;BME280;28261;53.304;-6.284;2023-04-01T00:27:12;99754.81;;;8.73;100.00
42633;BME280;28261;53.304;-6.284;2023-04-01T00:29:17;99754.94;;;8.71;100.00
42633;BME280;28261;53.304;-6.284;2023-04-01T00:31:21;99755.06;;;8.70;100.00
42633;BME280;28261;53.304;-6.284;2023-04-01T00:33:24;99753.38;;;8.69;100.00
42633;BME280;28261;53.304;-6.284;2023-04-01T00:35:29;99757.81;;;8.68;100.00
42633;BME280;28261;53.304;-6.284;2023-04-01T00:37:35;99755.31;;;8.67;100.00
42633;BME280;28261;53.304;-6.284;2023-04-01T00:39:39;99756.38;;;8.64;100.00
42633;BME280;28261;53.304;-6.284;2023-04-01T00:41:42;99759.00;;;8.64;100.00
42633;BME280;28261;53.304;-6.284;2023-04-01T00:43:48;99754.56;;;8.64;100.00
42633;BME280;28261;53.304;-6.284;2023-04-01T00:45:54;99757.19;;;8.64;100.00
42633;BME280;28261;53.304;-6.284;2023-04-01T00:48:00;99756.38;;;8.64;100.00
42633;BME280;28261;53.304;-6.284;2023-04-01T00:50:05;99756.38;;;8.64;100.00
42633;BME280;28261;53.304;-6.284;2023-04-01T00:52:11;99752.88;;;8.63;100.00
42633;BME280;28261;53.304;-6.284;2023-04-01T00:54:16;99760.78;;;8.63;100.00
42633;BME280;28261;53.304;-6.284;2023-04-01T00:56:24;99757.44;;;8.61;100.00
42633;BME280;28261;53.304;-6.284;2023-04-01T00:58:33;99759.22;;;8.61;100.00
42633;BME280;28261;53.304;-6.284;2023-04-01T01:00:38;99766.31;;;8.60;100.00
42633;BME280;28261;53.304;-6.284;2023-04-01T01:02:45;99767.25;;;8.59;100.00
42633;BME280;28261;53.304;-6.284;2023-04-01T01:04:49;99760.31;;;8.58;100.00
42633;BME280;28261;53.304;-6.284;2023-04-01T01:07:00;99762.09;;;8.58;100.00
42633;BME280;28261;53.304;-6.284;2023-04-01T01:09:25;99761.25;;;8.57;100.00
42633;BME280;28261;53.304;-6.284;2023-04-01T01:11:35;99771.94;;;8.56;100.00
42633;BME280;28261;53.304;-6.284;2023-04-01T01:13:49;99763.16;;;8.55;100.00
42633;BME280;28261;53.304;-6.284;2023-04-01T01:15:58;99765.91;;;8.54;100.00
42633;BME280;28261;53.304;-6.284;2023-04-01T01:18:09;99765.09;;;8.53;100.00
42633;BME280;28261;53.304;-6.284;2023-04-01T01:20:46;99768.44;;;8.55;100.00
42633;BME280;28261;53.304;-6.284;2023-04-01T01:23:21;99765.69;;;8.57;100.00
42633;BME280;28261;53.304;-6.284;2023-04-01T01:25:40;99771.84;;;8.57;100.00
42633;BME280;28261;53.304;-6.284;2023-04-01T01:27:56;99768.25;;;8.58;100.00
42633;BME280;28261;53.304;-6.284;2023-04-01T01:30:15;99776.06;;;8.60;100.00
42633;BME280;28261;53.304;-6.284;2023-04-01T01:32:35;99774.34;;;8.59;100.00
42633;BME280;28261;53.304;-6.284;2023-04-01T01:34:48;99777.72;;;8.61;100.00
42633;BME280;28261;53.304;-6.284;2023-04-01T01:36:59;99775.94;;;8.61;100.00
42633;BME280;28261;53.304;-6.284;2023-04-01T01:39:06;99771.59;;;8.60;100.00
42633;BME280;28261;53.304;-6.284;2023-04-01T01:41:13;99769.19;;;8.57;100.00
42633;BME280;28261;53.304;-6.284;2023-04-01T01:43:22;99781.53;;;8.57;100.00
42633;BME280;28261;53.304;-6.284;2023-04-01T01:45:27;99774.59;;;8.56;100.00
42633;BME280;28261;53.304;-6.284;2023-04-01T01:47:33;99773.84;;;8.54;100.00
42633;BME280;28261;53.304;-6.284;2023-04-01T01:49:41;99777.44;;;8.53;100.00
42633;BME280;28261;53.304;-6.284;2023-04-01T01:51:47;99779.25;;;8.52;100.00
42633;BME280;28261;53.304;-6.284;2023-04-01T01:53:52;99782.00;;;8.51;100.00
42633;BME280;28261;53.304;-6.284;2023-04-01T01:55:56;99780.44;;;8.48;100.00
42633;BME280;28261;53.304;-6.284;2023-04-01T01:58:04;99785.81;;;8.46;100.00
42633;BME280;28261;53.304;-6.284;2023-04-01T02:00:10;99780.53;;;8.46;100.00
42633;BME280;28261;53.304;-6.284;2023-04-01T02:02:18;99782.41;;;8.44;100.00
42633;BME280;28261;53.304;-6.284;2023-04-01T02:04:23;99785.06;;;8.44;100.00
42633;BME280;28261;53.304;-6.284;2023-04-01T02:06:28;99785.16;;;8.43;100.00
42633;BME280;28261;53.304;-6.284;2023-04-01T02:08:37;99788.66;;;8.43;100.00
42633;BME280;28261;53.304;-6.284;2023-04-01T02:10:48;99794.03;;;8.42;100.00
42633;BME280;28261;53.304;-6.284;2023-04-01T02:12:59;99793.19;;;8.41;100.00
42633;BME280;28261;53.304;-6.284;2023-04-01T02:15:07;99791.41;;;8.42;100.00
42633;BME280;28261;53.304;-6.284;2023-04-01T02:17:15;99801.25;;;8.40;100.00
42633;BME280;28261;53.304;-6.284;2023-04-01T02:19:20;99800.41;;;8.39;100.00
42633;BME280;28261;53.304;-6.284;2023-04-01T02:21:30;99806.53;;;8.40;100.00
42633;BME280;28261;53.304;-6.284;2023-04-01T02:23:35;99804.00;;;8.38;100.00
42633;BME280;28261;53.304;-6.284;2023-04-01T02:25:41;99808.41;;;8.38;100.00
42633;BME280;28261;53.304;-6.284;2023-04-01T02:27:47;99810.22;;;8.37;100.00
42633;BME280;28261;53.304;-6.284;2023-04-01T02:29:51;99809.28;;;8.38;100.00
42633;BME280;28261;53.304;-6.284;2023-04-01T02:31:55;99818.16;;;8.37;100.00
42633;BME280;28261;53.304;-6.284;2023-04-01T02:33:59;99815.63;;;8.36;100.00
42633;BME280;28261;53.304;-6.284;2023-04-01T02:36:04;99813.09;;;8.34;100.00
42633;BME280;28261;53.304;-6.284;2023-04-01T02:38:08;99821.97;;;8.33;100.00
42633;BME280;28261;53.304;-6.284;2023-04-01T02:40:13;99815.84;;;8.33;100.00
42633;BME280;28261;53.304;-6.284;2023-04-01T02:42:17;99818.63;;;8.31;100.00
42633;BME280;28261;53.304;-6.284;2023-04-01T02:44:22;99823.91;;;8.31;100.00
42633;BME280;28261;53.304;-6.284;2023-04-01T02:46:25;99822.19;;;8.30;100.00
42633;BME280;28261;53.304;-6.284;2023-04-01T02:48:29;99830.22;;;8.28;100.00
42633;BME280;28261;53.304;-6.284;2023-04-01T02:50:33;99826.72;;;8.28;100.00
42633;BME280;28261;53.304;-6.284;2023-04-01T02:52:36;99825.91;;;8.27;100.00
42633;BME280;28261;53.304;-6.284;2023-04-01T02:54:40;99831.28;;;8.26;100.00
42633;BME280;28261;53.304;-6.284;2023-04-01T02:56:44;99825.16;;;8.25;100.00
42633;BME280;28261;53.304;-6.284;2023-04-01T02:58:50;99831.41;;;8.24;100.00
42633;BME280;28261;53.304;-6.284;2023-04-01T03:00:55;99820.84;;;8.24;100.00
42633;BME280;28261;53.304;-6.284;2023-04-01T03:02:59;99828.78;;;8.24;100.00
42633;BME280;28261;53.304;-6.284;2023-04-01T03:05:03;99833.19;;;8.24;100.00
42633;BME280;28261;53.304;-6.284;2023-04-01T03:07:07;99834.06;;;8.24;100.00
42633;BME280;28261;53.304;-6.284;2023-04-01T03:09:11;99835.72;;;8.25;100.00
42633;BME280;28261;53.304;-6.284;2023-04-01T03:11:16;99834.88;;;8.25;100.00
42633;BME280;28261;53.304;-6.284;2023-04-01T03:13:19;99835.81;;;8.24;100.00
42633;BME280;28261;53.304;-6.284;2023-04-01T03:15:23;99845.44;;;8.25;100.00
42633;BME280;28261;53.304;-6.284;2023-04-01T03:17:27;99841.84;;;8.26;100.00
42633;BME280;28261;53.304;-6.284;2023-04-01T03:19:31;99844.38;;;8.27;100.00
42633;BME280;28261;53.304;-6.284;2023-04-01T03:21:39;99853.13;;;8.28;100.00
42633;BME280;28261;53.304;-6.284;2023-04-01T03:23:42;99846.06;;;8.28;100.00
42633;BME280;28261;53.304;-6.284;2023-04-01T03:25:46;99852.19;;;8.29;100.00
42633;BME280;28261;53.304;-6.284;2023-04-01T03:27:50;99851.13;;;8.32;100.00
42633;BME280;28261;53.304;-6.284;2023-04-01T03:29:53;99850.19;;;8.33;100.00
42633;BME280;28261;53.304;-6.284;2023-04-01T03:31:57;99857.13;;;8.34;100.00
42633;BME280;28261;53.304;-6.284;2023-04-01T03:34:02;99856.19;;;8.35;100.00
42633;BME280;28261;53.304;-6.284;2023-04-01T03:36:06;99860.53;;;8.36;100.00
42633;BME280;28261;53.304;-6.284;2023-04-01T03:38:10;99870.97;;;8.37;100.00
42633;BME280;28261;53.304;-6.284;2023-04-01T03:40:13;99870.03;;;8.38;100.00
42633;BME280;28261;53.304;-6.284;2023-04-01T03:42:17;99870.97;;;8.37;100.00
42633;BME280;28261;53.304;-6.284;2023-04-01T03:44:20;99866.53;;;8.38;100.00
42633;BME280;28261;53.304;-6.284;2023-04-01T03:46:27;99877.94;;;8.38;100.00
42633;BME280;28261;53.304;-6.284;2023-04-01T03:48:30;99875.41;;;8.37;100.00
42633;BME280;28261;53.304;-6.284;2023-04-01T03:50:35;99880.69;;;8.37;100.00
42633;BME280;28261;53.304;-6.284;2023-04-01T03:52:39;99876.25;;;8.37;100.00
42633;BME280;28261;53.304;-6.284;2023-04-01T03:54:43;99884.28;;;8.36;100.00
42633;BME280;28261;53.304;-6.284;2023-04-01T03:56:46;99885.13;;;8.36;100.00
42633;BME280;28261;53.304;-6.284;2023-04-01T03:58:50;99890.50;;;8.35;100.00
42633;BME280;28261;53.304;-6.284;2023-04-01T04:00:53;99892.31;;;8.34;100.00
42633;BME280;28261;53.304;-6.284;2023-04-01T04:02:58;99893.16;;;8.35;100.00
42633;BME280;28261;53.304;-6.284;2023-04-01T04:05:06;99894.22;;;8.32;100.00
42633;BME280;28261;53.304;-6.284;2023-04-01T04:07:12;99896.13;;;8.30;100.00
42633;BME280;28261;53.304;-6.284;2023-04-01T04:09:35;99895.38;;;8.28;100.00
42633;BME280;28261;53.304;-6.284;2023-04-01T04:11:38;99895.50;;;8.26;100.00
42633;BME280;28261;53.304;-6.284;2023-04-01T04:13:42;99901.94;;;8.22;100.00
42633;BME280;28261;53.304;-6.284;2023-04-01T04:15:46;99899.31;;;8.22;100.00
42633;BME280;28261;53.304;-6.284;2023-04-01T04:17:49;99901.22;;;8.20;100.00
42633;BME280;28261;53.304;-6.284;2023-04-01T04:19:52;99908.28;;;8.20;100.00
42633;BME280;28261;53.304;-6.284;2023-04-01T04:21:56;99907.47;;;8.19;100.00
42633;BME280;28261;53.304;-6.284;2023-04-01T04:24:05;99910.19;;;8.18;100.00
42633;BME280;28261;53.304;-6.284;2023-04-01T04:26:29;99915.47;;;8.18;100.00
42633;BME280;28261;53.304;-6.284;2023-04-01T04:28:34;99915.59;;;8.16;100.00
42633;BME280;28261;53.304;-6.284;2023-04-01T04:30:38;99909.44;;;8.16;100.00
42633;BME280;28261;53.304;-6.284;2023-04-01T04:32:41;99913.03;;;8.14;100.00
42633;BME280;28261;53.304;-6.284;2023-04-01T04:34:46;99913.03;;;8.14;100.00
42633;BME280;28261;53.304;-6.284;2023-04-01T04:36:50;99915.78;;;8.13;100.00
42633;BME280;28261;53.304;-6.284;2023-04-01T04:38:54;99919.28;;;8.13;100.00
42633;BME280;28261;53.304;-6.284;2023-04-01T04:41:01;99923.72;;;8.13;100.00
42633;BME280;28261;53.304;-6.284;2023-04-01T04:43:05;99931.63;;;8.13;100.00
42633;BME280;28261;53.304;-6.284;2023-04-01T04:45:09;99936.06;;;8.12;100.00
42633;BME280;28261;53.304;-6.284;2023-04-01T04:47:21;99935.25;;;8.12;100.00
42633;BME280;28261;53.304;-6.284;2023-04-01T04:49:25;99938.72;;;8.12;100.00
42633;BME280;28261;53.304;-6.284;2023-04-01T04:51:28;99941.47;;;8.11;100.00
42633;BME280;28261;53.304;-6.284;2023-04-01T04:53:32;99943.25;;;8.10;100.00
42633;BME280;28261;53.304;-6.284;2023-04-01T04:55:35;99945.06;;;8.10;100.00
42633;BME280;28261;53.304;-6.284;2023-04-01T04:58:09;99944.09;;;8.11;100.00
42633;BME280;28261;53.304;-6.284;2023-04-01T05:00:16;99955.50;;;8.11;100.00
42633;BME280;28261;53.304;-6.284;2023-04-01T05:02:41;99949.50;;;8.09;100.00
42633;BME280;28261;53.304;-6.284;2023-04-01T05:04:45;99948.53;;;8.10;100.00
42633;BME280;28261;53.304;-6.284;2023-04-01T05:06:49;99956.44;;;8.10;100.00
42633;BME280;28261;53.304;-6.284;2023-04-01T05:08:53;99961.72;;;8.10;100.00
42633;BME280;28261;53.304;-6.284;2023-04-01T05:10:57;99960.06;;;8.09;100.00
42633;BME280;28261;53.304;-6.284;2023-04-01T05:13:00;99962.69;;;8.09;100.00
42633;BME280;28261;53.304;-6.284;2023-04-01T05:15:06;99962.69;;;8.09;100.00
42633;BME280;28261;53.304;-6.284;2023-04-01T05:17:11;99963.53;;;8.10;100.00
42633;BME280;28261;53.304;-6.284;2023-04-01T05:19:14;99963.53;;;8.10;100.00
42633;BME280;28261;53.304;-6.284;2023-04-01T05:21:18;99975.91;;;8.09;100.00
42633;BME280;28261;53.304;-6.284;2023-04-01T05:23:22;99970.63;;;8.09;100.00
42633;BME280;28261;53.304;-6.284;2023-04-01T05:25:25;99982.13;;;8.08;100.00
42633;BME280;28261;53.304;-6.284;2023-04-01T05:27:29;99984.75;;;8.08;100.00
42633;BME280;28261;53.304;-6.284;2023-04-01T05:29:32;99984.00;;;8.06;100.00
42633;BME280;28261;53.304;-6.284;2023-04-01T05:31:41;99984.00;;;8.06;100.00
42633;BME280;28261;53.304;-6.284;2023-04-01T05:33:45;99994.56;;;8.06;100.00
42633;BME280;28261;53.304;-6.284;2023-04-01T05:35:49;99993.84;;;8.04;100.00
42633;BME280;28261;53.304;-6.284;2023-04-01T05:37:52;99999.13;;;8.04;100.00
42633;BME280;28261;53.304;-6.284;2023-04-01T05:39:56;100007.03;;;8.04;100.00
42633;BME280;28261;53.304;-6.284;2023-04-01T05:42:01;100001.00;;;8.02;100.00
42633;BME280;28261;53.304;-6.284;2023-04-01T05:44:04;100007.25;;;8.01;100.00
42633;BME280;28261;53.304;-6.284;2023-04-01T05:46:14;100010.72;;;8.02;100.00
42633;BME280;28261;53.304;-6.284;2023-04-01T05:48:29;100016.09;;;8.00;100.00
42633;BME280;28261;53.304;-6.284;2023-04-01T05:50:32;100009.13;;;7.99;100.00
42633;BME280;28261;53.304;-6.284;2023-04-01T05:52:37;100016.94;;;8.01;100.00
42633;BME280;28261;53.304;-6.284;2023-04-01T05:54:41;100018.75;;;8.00;100.00
42633;BME280;28261;53.304;-6.284;2023-04-01T05:56:45;100019.69;;;7.99;100.00
42633;BME280;28261;53.304;-6.284;2023-04-01T05:58:53;100035.53;;;7.99;100.00
42633;BME280;28261;53.304;-6.284;2023-04-01T06:01:01;100028.56;;;7.98;100.00
42633;BME280;28261;53.304;-6.284;2023-04-01T06:03:16;100035.53;;;7.99;100.00
42633;BME280;28261;53.304;-6.284;2023-04-01T06:05:22;100030.13;;;8.01;100.00
42633;BME280;28261;53.304;-6.284;2023-04-01T06:07:27;100044.31;;;8.00;100.00
42633;BME280;28261;53.304;-6.284;2023-04-01T06:09:32;100046.09;;;7.99;100.00
42633;BME280;28261;53.304;-6.284;2023-04-01T06:11:44;100046.09;;;7.99;100.00
42633;BME280;28261;53.304;-6.284;2023-04-01T06:13:59;100052.13;;;8.01;100.00
42633;BME280;28261;53.304;-6.284;2023-04-01T06:16:15;100056.44;;;8.02;100.00
42633;BME280;28261;53.304;-6.284;2023-04-01T06:18:48;100059.06;;;8.02;100.00
42633;BME280;28261;53.304;-6.284;2023-04-01T06:21:01;100056.44;;;8.02;100.00
42633;BME280;28261;53.304;-6.284;2023-04-01T06:23:26;100067.75;;;8.04;100.00
42633;BME280;28261;53.304;-6.284;2023-04-01T06:25:40;100070.16;;;8.07;100.00
42633;BME280;28261;53.304;-6.284;2023-04-01T06:27:58;100078.97;;;8.08;100.00
42633;BME280;28261;53.304;-6.284;2023-04-01T06:30:23;100077.03;;;8.10;100.00
42633;BME280;28261;53.304;-6.284;2023-04-01T06:32:46;100076.94;;;8.11;100.00
42633;BME280;28261;53.304;-6.284;2023-04-01T06:35:14;100080.44;;;8.12;100.00
42633;BME280;28261;53.304;-6.284;2023-04-01T06:37:39;100083.09;;;8.12;100.00
42633;BME280;28261;53.304;-6.284;2023-04-01T06:39:58;100088.38;;;8.12;100.00
42633;BME280;28261;53.304;-6.284;2023-04-01T06:42:35;100097.13;;;8.12;100.00
42633;BME280;28261;53.304;-6.284;2023-04-01T06:45:11;100090.91;;;8.13;100.00
42633;BME280;28261;53.304;-6.284;2023-04-01T06:50:57;100106.72;;;8.13;100.00
42633;BME280;28261;53.304;-6.284;2023-04-01T06:53:42;100121.59;;;8.14;100.00
42633;BME280;28261;53.304;-6.284;2023-04-01T06:56:18;100127.84;;;8.13;100.00
42633;BME280;28261;53.304;-6.284;2023-04-01T06:58:39;100136.72;;;8.12;100.00
42633;BME280;28261;53.304;-6.284;2023-04-01T07:00:46;100135.00;;;8.11;100.00
42633;BME280;28261;53.304;-6.284;2023-04-01T07:02:58;100149.91;;;8.12;100.00
42633;BME280;28261;53.304;-6.284;2023-04-01T07:05:08;100144.63;;;8.12;100.00
42633;BME280;28261;53.304;-6.284;2023-04-01T07:07:19;100154.25;;;8.13;100.00
42633;BME280;28261;53.304;-6.284;2023-04-01T07:09:35;100158.56;;;8.14;100.00
42633;BME280;28261;53.304;-6.284;2023-04-01T07:12:03;100169.13;;;8.14;100.00
42633;BME280;28261;53.304;-6.284;2023-04-01T07:14:37;100174.50;;;8.13;100.00
42633;BME280;28261;53.304;-6.284;2023-04-01T07:16:44;100186.78;;;8.14;100.00
42633;BME280;28261;53.304;-6.284;2023-04-01T07:18:56;100185.94;;;8.13;100.00
42633;BME280;28261;53.304;-6.284;2023-04-01T07:21:19;100188.47;;;8.15;100.00
42633;BME280;28261;53.304;-6.284;2023-04-01T07:23:29;100189.31;;;8.16;100.00
42633;BME280;28261;53.304;-6.284;2023-04-01T07:25:45;100198.16;;;8.14;100.00
42633;BME280;28261;53.304;-6.284;2023-04-01T07:28:05;100198.00;;;8.18;100.00
42633;BME280;28261;53.304;-6.284;2023-04-01T07:30:15;100199.66;;;8.19;100.00
42633;BME280;28261;53.304;-6.284;2023-04-01T07:32:29;100205.69;;;8.21;100.00
42633;BME280;28261;53.304;-6.284;2023-04-01T07:34:44;100216.16;;;8.22;100.00
42633;BME280;28261;53.304;-6.284;2023-04-01T07:36:55;100229.25;;;8.24;100.00
42633;BME280;28261;53.304;-6.284;2023-04-01T07:39:12;100225.69;;;8.25;100.00
42633;BME280;28261;53.304;-6.284;2023-04-01T07:41:50;100235.41;;;8.24;100.00
42633;BME280;28261;53.304;-6.284;2023-04-01T07:44:03;100238.88;;;8.25;100.00
42633;BME280;28261;53.304;-6.284;2023-04-01T07:46:17;100245.00;;;8.25;100.00
42633;BME280;28261;53.304;-6.284;2023-04-01T07:48:29;100248.50;;;8.26;100.00
42633;BME280;28261;53.304;-6.284;2023-04-01T07:50:41;100255.50;;;8.27;100.00
42633;BME280;28261;53.304;-6.284;2023-04-01T07:53:01;100262.44;;;8.28;100.00
42633;BME280;28261;53.304;-6.284;2023-04-01T07:55:14;100262.25;;;8.31;100.00
42633;BME280;28261;53.304;-6.284;2023-04-01T07:57:24;100264.81;;;8.33;100.00
42633;BME280;28261;53.304;-6.284;2023-04-01T07:59:33;100273.56;;;8.33;100.00
42633;BME280;28261;53.304;-6.284;2023-04-01T08:01:58;100276.97;;;8.35;100.00
42633;BME280;28261;53.304;-6.284;2023-04-01T08:04:17;100278.63;;;8.36;100.00
42633;BME280;28261;53.304;-6.284;2023-04-01T08:06:28;100281.28;;;8.36;100.00
42633;BME280;28261;53.304;-6.284;2023-04-01T08:08:52;100294.47;;;8.36;100.00
42633;BME280;28261;53.304;-6.284;2023-04-01T08:11:15;100301.47;;;8.37;100.00
42633;BME280;28261;53.304;-6.284;2023-04-01T08:13:51;100307.50;;;8.39;100.00
42633;BME280;28261;53.304;-6.284;2023-04-01T08:16:12;100315.34;;;8.41;100.00
42633;BME280;28261;53.304;-6.284;2023-04-01T08:18:33;100313.63;;;8.40;100.00
42633;BME280;28261;53.304;-6.284;2023-04-01T08:20:44;100328.44;;;8.42;100.00
42633;BME280;28261;53.304;-6.284;2023-04-01T08:22:52;100326.53;;;8.44;100.00
42633;BME280;28261;53.304;-6.284;2023-04-01T08:25:05;100329.09;;;8.46;100.00
42633;BME280;28261;53.304;-6.284;2023-04-01T08:27:16;100331.66;;;8.48;100.00
42633;BME280;28261;53.304;-6.284;2023-04-01T08:29:26;100330.59;;;8.50;100.00
42633;BME280;28261;53.304;-6.284;2023-04-01T08:31:38;100341.00;;;8.53;100.00
42633;BME280;28261;53.304;-6.284;2023-04-01T08:33:45;100342.59;;;8.56;100.00
42633;BME280;28261;53.304;-6.284;2023-04-01T08:35:52;100346.91;;;8.57;100.00
42633;BME280;28261;53.304;-6.284;2023-04-01T08:38:01;100352.00;;;8.60;100.00
42633;BME280;28261;53.304;-6.284;2023-04-01T08:40:30;100364.25;;;8.61;100.00
42633;BME280;28261;53.304;-6.284;2023-04-01T08:42:55;100357.91;;;8.63;100.00
42633;BME280;28261;53.304;-6.284;2023-04-01T08:45:20;100366.50;;;8.67;100.00
42633;BME280;28261;53.304;-6.284;2023-04-01T08:47:42;100369.88;;;8.69;100.00
42633;BME280;28261;53.304;-6.284;2023-04-01T08:53:00;100378.38;;;8.74;100.00
42633;BME280;28261;53.304;-6.284;2023-04-01T08:55:36;100381.78;;;8.76;100.00
42633;BME280;28261;53.304;-6.284;2023-04-01T08:57:56;100394.78;;;8.79;100.00
42633;BME280;28261;53.304;-6.284;2023-04-01T09:00:22;100397.31;;;8.81;100.00
42633;BME280;28261;53.304;-6.284;2023-04-01T09:05:32;100405.81;;;8.86;100.00
42633;BME280;28261;53.304;-6.284;2023-04-01T09:07:46;100411.00;;;8.88;100.00
42633;BME280;28261;53.304;-6.284;2023-04-01T09:10:21;100413.44;;;8.91;100.00
42633;BME280;28261;53.304;-6.284;2023-04-01T09:12:41;100422.84;;;8.95;100.00
42633;BME280;28261;53.304;-6.284;2023-04-01T09:15:27;100428.69;;;9.00;100.00
42633;BME280;28261;53.304;-6.284;2023-04-01T09:20:31;100436.13;;;9.08;100.00
42633;BME280;28261;53.304;-6.284;2023-04-01T09:22:54;100437.91;;;9.07;100.00
42633;BME280;28261;53.304;-6.284;2023-04-01T09:27:45;100442.38;;;9.07;100.00
42633;BME280;28261;53.304;-6.284;2023-04-01T09:30:06;100447.66;;;9.07;100.00
42633;BME280;28261;53.304;-6.284;2023-04-01T09:32:47;100457.19;;;9.09;100.00
42633;BME280;28261;53.304;-6.284;2023-04-01T09:35:15;100461.31;;;9.13;100.00
42633;BME280;28261;53.304;-6.284;2023-04-01T09:37:34;100454.88;;;9.18;100.00
42633;BME280;28261;53.304;-6.284;2023-04-01T09:40:01;100456.28;;;9.23;100.00
42633;BME280;28261;53.304;-6.284;2023-04-01T09:42:26;100464.66;;;9.30;100.00
42633;BME280;28261;53.304;-6.284;2023-04-01T09:44:50;100473.97;;;9.36;100.00
42633;BME280;28261;53.304;-6.284;2023-04-01T09:47:16;100473.78;;;9.39;100.00
42633;BME280;28261;53.304;-6.284;2023-04-01T09:49:46;100476.53;;;9.37;100.00
42633;BME280;28261;53.304;-6.284;2023-04-01T09:52:12;100474.22;;;9.45;100.00
42633;BME280;28261;53.304;-6.284;2023-04-01T09:54:32;100480.50;;;9.57;100.00
42633;BME280;28261;53.304;-6.284;2023-04-01T09:59:57;100486.78;;;9.82;100.00
42633;BME280;28261;53.304;-6.284;2023-04-01T10:05:19;100488.28;;;10.12;100.00
42633;BME280;28261;53.304;-6.284;2023-04-01T10:08:06;100493.38;;;10.28;100.00
42633;BME280;28261;53.304;-6.284;2023-04-01T10:10:37;100500.16;;;10.32;100.00
42633;BME280;28261;53.304;-6.284;2023-04-01T10:21:21;100521.38;;;10.45;100.00
42633;BME280;28261;53.304;-6.284;2023-04-01T10:29:40;100542.78;;;10.55;100.00
42633;BME280;28261;53.304;-6.284;2023-04-01T10:37:48;100557.53;;;10.59;100.00
42633;BME280;28261;53.304;-6.284;2023-04-01T10:40:30;100566.00;;;10.64;100.00
42633;BME280;28261;53.304;-6.284;2023-04-01T10:46:24;100561.53;;;10.77;100.00
42633;BME280;28261;53.304;-6.284;2023-04-01T10:51:26;100582.31;;;10.96;100.00
42633;BME280;28261;53.304;-6.284;2023-04-01T10:54:09;100573.28;;;10.99;100.00
42633;BME280;28261;53.304;-6.284;2023-04-01T10:56:59;100581.53;;;11.07;100.00
42633;BME280;28261;53.304;-6.284;2023-04-01T11:05:52;100601.69;;;10.97;100.00
42633;BME280;28261;53.304;-6.284;2023-04-01T11:11:28;100605.34;;;10.83;100.00
42633;BME280;28261;53.304;-6.284;2023-04-01T11:13:54;100616.25;;;10.78;100.00
42633;BME280;28261;53.304;-6.284;2023-04-01T11:19:12;100619.13;;;10.88;100.00
42633;BME280;28261;53.304;-6.284;2023-04-01T11:21:53;100620.16;;;10.98;100.00
42633;BME280;28261;53.304;-6.284;2023-04-01T11:27:35;100635.97;;;11.00;100.00
42633;BME280;28261;53.304;-6.284;2023-04-01T11:30:04;100636.84;;;11.00;100.00
42633;BME280;28261;53.304;-6.284;2023-04-01T11:32:33;100641.56;;;11.08;100.00
42633;BME280;28261;53.304;-6.284;2023-04-01T11:34:59;100642.00;;;11.15;100.00
42633;BME280;28261;53.304;-6.284;2023-04-01T11:37:17;100648.06;;;11.17;100.00
42633;BME280;28261;53.304;-6.284;2023-04-01T11:40:12;100657.72;;;11.05;100.00
42633;BME280;28261;53.304;-6.284;2023-04-01T11:43:13;100662.69;;;11.10;100.00
42633;BME280;28261;53.304;-6.284;2023-04-01T11:46:02;100659.72;;;11.14;100.00
42633;BME280;28261;53.304;-6.284;2023-04-01T11:48:35;100667.25;;;11.21;100.00
42633;BME280;28261;53.304;-6.284;2023-04-01T11:50:56;100669.47;;;11.27;100.00
42633;BME280;28261;53.304;-6.284;2023-04-01T11:53:23;100671.59;;;11.34;100.00
42633;BME280;28261;53.304;-6.284;2023-04-01T11:55:40;100682.81;;;11.38;100.00
42633;BME280;28261;53.304;-6.284;2023-04-01T12:03:10;100679.16;;;11.65;100.00
42633;BME280;28261;53.304;-6.284;2023-04-01T12:05:34;100693.56;;;11.74;100.00
42633;BME280;28261;53.304;-6.284;2023-04-01T12:07:59;100690.59;;;11.78;100.00
42633;BME280;28261;53.304;-6.284;2023-04-01T12:10:17;100696.56;;;11.69;100.00
42633;BME280;28261;53.304;-6.284;2023-04-01T12:12:32;100707.19;;;11.69;100.00
42633;BME280;28261;53.304;-6.284;2023-04-01T12:15:00;100701.88;;;11.69;100.00
42633;BME280;28261;53.304;-6.284;2023-04-01T12:17:25;100702.59;;;11.71;100.00
42633;BME280;28261;53.304;-6.284;2023-04-01T12:19:40;100707.25;;;11.80;100.00
42633;BME280;28261;53.304;-6.284;2023-04-01T12:21:56;100713.38;;;11.94;100.00
42633;BME280;28261;53.304;-6.284;2023-04-01T12:24:27;100709.88;;;11.93;98.24
42633;BME280;28261;53.304;-6.284;2023-04-01T12:26:47;100723.25;;;11.92;97.79
42633;BME280;28261;53.304;-6.284;2023-04-01T12:29:04;100731.91;;;11.82;96.48
42633;BME280;28261;53.304;-6.284;2023-04-01T12:31:25;100727.00;;;11.76;97.28
42633;BME280;28261;53.304;-6.284;2023-04-01T12:33:53;100733.50;;;11.72;97.47
42633;BME280;28261;53.304;-6.284;2023-04-01T12:36:20;100727.78;;;11.78;98.52
42633;BME280;28261;53.304;-6.284;2023-04-01T12:38:35;100730.72;;;11.87;97.46